createdAt,value
2023-04-17T10:23:42.954Z,4.60
2023-04-17T10:26:26.487Z,3.90
2023-04-17T10:28:55.431Z,5.90
2023-04-17T10:31:24.900Z,4.00
2023-04-17T10:33:54.402Z,5.40
2023-04-17T10:36:38.137Z,4.70
2023-04-17T10:39:16.925Z,5.20
2023-04-17T10:42:03.769Z,6.50
2023-04-17T10:44:35.952Z,5.30
2023-04-17T10:49:55.120Z,5.40
2023-04-17T10:52:32.339Z,5.00
2023-04-17T10:55:08.090Z,4.90
2023-04-17T10:58:02.519Z,5.10
2023-04-17T11:00:33.292Z,4.60
2023-04-17T11:03:03.183Z,4.60
2023-04-17T11:05:31.590Z,5.30
2023-04-17T11:07:59.852Z,4.70
2023-04-17T11:10:27.872Z,6.60
2023-04-17T11:12:56.959Z,4.80
2023-04-17T11:15:29.004Z,5.30
2023-04-17T11:17:58.074Z,4.80
2023-04-17T11:20:30.940Z,4.40
2023-04-17T11:23:05.802Z,5.20
2023-04-17T11:25:34.811Z,4.00
2023-04-17T11:28:05.993Z,6.60
2023-04-17T11:30:35.940Z,5.30
2023-04-17T11:33:05.744Z,5.30
2023-04-17T11:35:35.667Z,7.80
2023-04-17T11:38:11.557Z,6.70
2023-04-17T11:40:50.670Z,4.60
2023-04-17T11:43:22.839Z,4.40
2023-04-17T11:45:56.467Z,4.70
2023-04-17T11:48:26.536Z,4.60
2023-04-17T11:50:58.649Z,4.80
2023-04-17T11:53:26.767Z,4.80
2023-04-17T11:56:18.308Z,5.50
2023-04-17T11:58:46.906Z,6.70
2023-04-17T12:01:15.592Z,6.20
2023-04-17T12:03:45.518Z,5.90
2023-04-17T12:08:53.789Z,5.60
2023-04-17T12:11:34.124Z,4.70
2023-04-17T12:14:02.889Z,7.00
2023-04-17T12:16:31.465Z,5.10
2023-04-17T12:18:59.812Z,5.90
2023-04-17T12:21:27.807Z,5.70
2023-04-17T12:23:56.109Z,5.30
2023-04-17T12:26:25.496Z,4.90
2023-04-17T12:28:53.465Z,5.40
2023-04-17T12:31:21.417Z,5.40
2023-04-17T12:33:50.114Z,4.20
2023-04-17T12:36:18.201Z,4.80
2023-04-17T12:38:47.331Z,5.50
2023-04-17T12:41:15.429Z,4.40
2023-04-17T12:43:43.482Z,5.10
2023-04-17T12:46:12.071Z,6.30
2023-04-17T12:48:40.399Z,5.70
2023-04-17T12:51:08.320Z,5.20
2023-04-17T12:53:36.584Z,5.70
2023-04-17T12:56:05.506Z,4.50
2023-04-17T12:58:33.452Z,5.90
2023-04-17T13:01:01.625Z,6.70
2023-04-17T13:03:29.908Z,4.70
2023-04-17T13:05:58.146Z,5.20
2023-04-17T13:08:26.304Z,6.10
2023-04-17T13:10:54.695Z,4.20
2023-04-17T13:13:22.904Z,5.30
2023-04-17T13:15:51.207Z,4.40
2023-04-17T13:18:19.513Z,4.50
2023-04-17T13:20:47.600Z,6.10
2023-04-17T13:23:15.939Z,4.90
2023-04-17T13:25:43.894Z,6.00
2023-04-17T13:28:12.099Z,5.80
2023-04-17T13:30:40.125Z,5.20
2023-04-17T13:33:08.933Z,4.80
2023-04-17T13:35:37.850Z,6.00
2023-04-17T13:38:06.373Z,6.00
2023-04-17T13:40:34.388Z,7.20
2023-04-17T13:43:02.395Z,6.60
2023-04-17T13:45:30.619Z,5.50
2023-04-17T13:48:00.325Z,9.10
2023-04-17T13:50:28.718Z,5.60
2023-04-17T13:52:56.757Z,7.10
2023-04-17T13:55:24.716Z,6.20
2023-04-17T13:57:54.171Z,6.00
2023-04-17T14:00:22.588Z,8.50
2023-04-17T14:02:50.702Z,7.00
2023-04-17T14:05:18.952Z,5.40
2023-04-17T14:07:47.148Z,7.30
2023-04-17T14:10:15.699Z,6.80
2023-04-17T14:12:44.169Z,5.20
2023-04-17T14:15:13.275Z,6.90
2023-04-17T14:17:43.395Z,5.20
2023-04-17T14:20:12.675Z,5.10
2023-04-17T14:22:41.069Z,5.00
2023-04-17T14:25:09.661Z,4.60
2023-04-17T14:27:38.547Z,5.40
2023-04-17T14:30:07.760Z,5.80
2023-04-17T14:32:38.558Z,4.90
2023-04-17T14:35:07.543Z,5.70
2023-04-17T14:37:36.052Z,6.80
2023-04-17T14:40:04.950Z,5.10
2023-04-17T14:42:40.791Z,4.90
2023-04-17T14:45:19.026Z,3.90
2023-04-17T14:47:47.091Z,5.10
2023-04-17T14:50:15.071Z,6.60
2023-04-17T14:52:43.333Z,4.00
2023-04-17T14:55:12.381Z,5.90
2023-04-17T14:57:40.695Z,7.90
2023-04-17T15:00:09.447Z,6.60
2023-04-17T15:02:39.379Z,4.80
2023-04-17T15:05:08.294Z,5.40
2023-04-17T15:07:36.846Z,6.60
2023-04-17T15:10:05.717Z,7.70
2023-04-17T15:12:34.264Z,4.50
2023-04-17T15:15:02.314Z,6.50
2023-04-17T15:17:30.911Z,5.80
2023-04-17T15:20:00.859Z,5.50
2023-04-17T15:22:29.196Z,4.70
2023-04-17T15:24:57.319Z,6.30
2023-04-17T15:27:25.664Z,5.00
2023-04-17T15:29:53.606Z,6.50
2023-04-17T15:32:21.692Z,6.90
2023-04-17T15:34:49.907Z,7.40
2023-04-17T15:37:17.947Z,7.20
2023-04-17T15:39:46.312Z,6.90
2023-04-17T15:42:14.392Z,6.40
2023-04-17T15:44:42.713Z,5.50
2023-04-17T15:47:10.801Z,6.10
2023-04-17T15:49:39.015Z,6.60
2023-04-17T15:52:07.198Z,6.40
2023-04-17T15:54:35.729Z,6.90
2023-04-17T15:57:03.947Z,5.60
2023-04-17T15:59:33.433Z,6.10
2023-04-17T16:02:01.722Z,6.20
2023-04-17T16:04:30.657Z,8.80
2023-04-17T16:06:58.656Z,7.80
2023-04-17T16:09:27.065Z,6.50
2023-04-17T16:11:55.397Z,5.60
2023-04-17T16:14:23.637Z,6.20
2023-04-17T16:16:51.707Z,8.20
2023-04-17T16:19:20.326Z,8.50
2023-04-17T16:21:48.391Z,8.10
2023-04-17T16:24:16.613Z,7.80
2023-04-17T16:26:44.707Z,7.90
2023-04-17T16:29:12.787Z,9.00
2023-04-17T16:31:41.412Z,8.60
2023-04-17T16:34:09.638Z,8.70
2023-04-17T16:36:37.733Z,9.10
2023-04-17T16:39:08.242Z,9.50
2023-04-17T16:41:36.346Z,10.40
2023-04-17T16:44:04.484Z,10.20
2023-04-17T16:46:45.669Z,10.10
2023-04-17T16:49:20.696Z,9.60
2023-04-17T16:51:48.717Z,10.40
2023-04-17T16:54:16.890Z,10.00
2023-04-17T16:56:44.921Z,10.20
2023-04-17T16:59:13.397Z,10.30
2023-04-17T17:01:41.808Z,10.30
2023-04-17T17:04:09.889Z,10.30
2023-04-17T17:06:37.996Z,11.20
2023-04-17T17:09:06.796Z,10.60
2023-04-17T17:11:34.787Z,10.40
2023-04-17T17:14:03.272Z,10.20
2023-04-17T17:16:31.697Z,10.30
2023-04-17T17:19:00.321Z,10.80
2023-04-17T17:21:29.072Z,10.50
2023-04-17T17:23:57.099Z,10.40
2023-04-17T17:26:25.294Z,10.80
2023-04-17T17:28:53.660Z,10.70
2023-04-17T17:31:21.639Z,11.00
2023-04-17T17:33:54.153Z,11.20
2023-04-17T17:36:22.185Z,10.40
2023-04-17T17:38:55.701Z,10.30
2023-04-17T17:41:24.184Z,12.10
2023-04-17T17:43:52.325Z,10.70
2023-04-17T17:46:21.312Z,12.50
2023-04-17T17:48:49.575Z,11.10
2023-04-17T17:51:17.578Z,11.90
2023-04-17T17:53:45.636Z,12.60
2023-04-17T17:56:13.967Z,10.10
2023-04-17T17:58:42.107Z,9.10
2023-04-17T18:01:10.118Z,11.20
2023-04-17T18:03:38.649Z,9.10
2023-04-17T18:06:06.677Z,9.00
2023-04-17T18:08:34.823Z,8.30
2023-04-17T18:11:02.974Z,9.60
2023-04-17T18:13:31.476Z,9.20
2023-04-17T18:16:04.232Z,8.50
2023-04-17T18:18:32.795Z,9.70
2023-04-17T18:21:00.783Z,9.60
2023-04-17T18:23:29.841Z,10.40
2023-04-17T18:25:58.963Z,8.10
2023-04-17T18:28:27.343Z,8.90
2023-04-17T18:30:55.335Z,8.50
2023-04-17T18:33:23.578Z,10.60
2023-04-17T18:35:52.722Z,9.50
2023-04-17T18:38:21.340Z,8.70
2023-04-17T18:41:01.071Z,9.80
2023-04-17T18:43:29.164Z,8.90
2023-04-17T18:45:57.472Z,8.50
2023-04-17T18:48:25.542Z,9.90
2023-04-17T18:50:53.692Z,8.40
2023-04-17T18:53:21.800Z,9.70
2023-04-17T18:55:49.655Z,9.80
2023-04-17T18:58:18.129Z,8.70
2023-04-17T19:00:46.251Z,11.60
2023-04-17T19:03:14.274Z,8.40
2023-04-17T19:05:42.442Z,10.20
2023-04-17T19:08:10.526Z,9.80
2023-04-17T19:10:40.006Z,8.80
2023-04-17T19:13:09.983Z,9.30
2023-04-17T19:15:38.165Z,9.50
2023-04-17T19:18:06.936Z,9.10
2023-04-17T19:20:36.499Z,9.50
2023-04-17T19:23:04.672Z,9.90
2023-04-17T19:25:32.762Z,10.20
2023-04-17T19:28:00.752Z,11.60
2023-04-17T19:30:28.763Z,12.60
2023-04-17T19:32:57.154Z,12.40
2023-04-17T19:35:26.620Z,12.60
2023-04-17T19:37:54.525Z,12.40
2023-04-17T19:40:25.444Z,12.70
2023-04-17T19:42:54.362Z,12.80
2023-04-17T19:45:22.313Z,11.90
2023-04-17T19:47:56.261Z,14.50
2023-04-17T19:50:27.055Z,11.50
2023-04-17T19:52:55.792Z,10.60
2023-04-17T19:55:23.743Z,9.60
2023-04-17T19:57:52.279Z,10.60
2023-04-17T20:00:20.381Z,10.30
2023-04-17T20:02:48.872Z,12.40
2023-04-17T20:05:18.507Z,11.70
2023-04-17T20:07:47.036Z,10.80
2023-04-17T20:10:17.130Z,10.90
2023-04-17T20:12:45.194Z,10.80
2023-04-17T20:15:13.021Z,10.60
2023-04-17T20:17:41.298Z,10.00
2023-04-17T20:20:09.875Z,9.90
2023-04-17T20:22:39.705Z,9.70
2023-04-17T20:25:08.047Z,10.80
2023-04-17T20:27:36.319Z,11.30
2023-04-17T20:30:04.617Z,9.30
2023-04-17T20:32:33.412Z,10.40
2023-04-17T20:35:02.785Z,9.50
2023-04-17T20:37:31.422Z,9.50
2023-04-17T20:39:59.714Z,9.10
2023-04-17T20:42:27.755Z,9.60
2023-04-17T20:44:55.720Z,9.80
2023-04-17T20:47:24.007Z,10.30
2023-04-17T20:49:51.973Z,10.00
2023-04-17T20:52:20.058Z,10.90
2023-04-17T20:54:48.111Z,10.80
2023-04-17T20:57:16.141Z,10.50
2023-04-17T20:59:44.056Z,10.70
2023-04-17T21:02:12.389Z,11.80
2023-04-17T21:04:41.079Z,8.90
2023-04-17T21:07:09.424Z,9.50
2023-04-17T21:09:37.786Z,9.10
2023-04-17T21:12:06.649Z,9.40
2023-04-17T21:14:36.221Z,10.50
2023-04-17T21:17:04.339Z,7.20
2023-04-17T21:19:35.654Z,9.10
2023-04-17T21:22:04.287Z,9.10
2023-04-17T21:24:32.783Z,9.80
2023-04-17T21:27:01.488Z,9.60
2023-04-17T21:29:29.834Z,13.60
2023-04-17T21:31:58.058Z,10.40
2023-04-17T21:34:26.291Z,10.60
2023-04-17T21:36:54.534Z,10.40
2023-04-17T21:39:22.474Z,10.90
2023-04-17T21:41:50.712Z,10.80
2023-04-17T21:44:18.672Z,12.80
2023-04-17T21:46:46.721Z,9.70
2023-04-17T21:49:15.138Z,10.30
2023-04-17T21:51:43.130Z,9.80
2023-04-17T21:54:11.444Z,11.30
2023-04-17T21:56:39.818Z,11.70
2023-04-17T21:59:07.860Z,12.30
2023-04-17T22:01:35.847Z,14.00
2023-04-17T22:04:04.051Z,10.10
2023-04-17T22:06:36.272Z,9.50
2023-04-17T22:09:04.989Z,9.80
2023-04-17T22:11:33.035Z,9.70
2023-04-17T22:14:01.336Z,9.90
2023-04-17T22:16:29.585Z,10.50
2023-04-17T22:18:57.648Z,9.10
2023-04-17T22:21:27.068Z,9.20
2023-04-17T22:23:55.277Z,8.60
2023-04-17T22:26:23.418Z,9.10
2023-04-17T22:28:51.405Z,9.80
2023-04-17T22:31:19.599Z,8.80
2023-04-17T22:33:47.739Z,9.40
2023-04-17T22:36:15.656Z,8.40
2023-04-17T22:40:42.673Z,8.90
2023-04-17T22:43:10.740Z,8.60
2023-04-17T22:45:38.880Z,9.40
2023-04-17T22:48:07.063Z,8.80
2023-04-17T22:50:35.220Z,8.60
2023-04-17T22:53:03.892Z,8.70
2023-04-17T22:55:31.762Z,7.70
2023-04-17T22:58:01.405Z,7.50
2023-04-17T23:00:30.348Z,9.50
2023-04-17T23:02:58.590Z,7.70
2023-04-17T23:05:26.602Z,8.20
2023-04-17T23:07:54.588Z,8.20
2023-04-17T23:10:22.586Z,7.10
2023-04-17T23:12:50.713Z,10.00
2023-04-17T23:15:18.639Z,9.20
2023-04-17T23:17:46.689Z,9.00
2023-04-17T23:20:14.701Z,7.00
2023-04-17T23:22:42.701Z,7.80
2023-04-17T23:25:10.786Z,7.90
2023-04-17T23:27:39.068Z,6.40
2023-04-17T23:30:08.434Z,7.70
2023-04-17T23:32:36.983Z,6.40
2023-04-17T23:35:06.512Z,11.00
2023-04-17T23:37:34.940Z,9.60
2023-04-17T23:40:03.036Z,8.00
2023-04-17T23:42:31.397Z,7.00
2023-04-17T23:44:59.496Z,7.30
2023-04-17T23:47:27.725Z,9.60
2023-04-17T23:49:55.672Z,7.90
2023-04-17T23:52:23.801Z,7.90
2023-04-17T23:54:51.760Z,7.50
2023-04-17T23:57:19.784Z,8.90
2023-04-17T23:59:48.246Z,7.10
